createdAt,value
2019-04-28T00:01:54.350Z,3.60
2019-04-28T00:04:24.072Z,3.75
2019-04-28T00:06:53.658Z,4.12
2019-04-28T00:09:23.455Z,3.83
2019-04-28T00:11:53.247Z,4.00
2019-04-28T00:14:23.160Z,3.92
2019-04-28T00:16:52.797Z,4.17
2019-04-28T00:19:24.087Z,4.47
2019-04-28T00:22:04.114Z,4.20
2019-04-28T00:27:05.046Z,4.00
2019-04-28T00:29:40.794Z,4.17
2019-04-28T00:32:07.306Z,4.17
2019-04-28T00:34:41.203Z,5.10
2019-04-28T00:37:12.807Z,4.72
2019-04-28T00:39:42.514Z,4.37
2019-04-28T00:42:12.262Z,4.05
2019-04-28T00:44:43.393Z,4.62
2019-04-28T00:47:14.494Z,4.85
2019-04-28T00:49:48.078Z,4.92
2019-04-28T00:52:19.256Z,5.30
2019-04-28T00:54:49.650Z,5.22
2019-04-28T00:57:21.022Z,5.85
2019-04-28T00:59:57.554Z,5.55
2019-04-28T01:02:23.848Z,5.53
2019-04-28T01:04:54.596Z,5.87
2019-04-28T01:07:24.334Z,4.80
2019-04-28T01:09:54.346Z,6.78
2019-04-28T01:14:54.977Z,5.80
2019-04-28T01:17:26.625Z,5.95
2019-04-28T01:20:00.697Z,6.30
2019-04-28T01:22:30.356Z,5.87
2019-04-28T01:25:00.026Z,6.05
2019-04-28T01:27:32.838Z,6.62
2019-04-28T01:30:09.161Z,5.97
2019-04-28T01:32:37.406Z,5.72
2019-04-28T01:35:07.143Z,5.60
2019-04-28T01:37:36.828Z,5.75
2019-04-28T01:40:07.142Z,5.60
2019-04-28T01:42:36.745Z,5.17
2019-04-28T01:45:07.413Z,5.45
2019-04-28T01:47:37.146Z,4.67
2019-04-28T01:50:07.215Z,4.60
2019-04-28T01:52:36.944Z,4.05
2019-04-28T01:55:07.293Z,4.53
2019-04-28T01:57:36.858Z,4.40
2019-04-28T02:00:22.301Z,4.60
2019-04-28T02:02:44.774Z,4.30
2019-04-28T02:05:15.256Z,3.95
2019-04-28T02:07:44.819Z,4.00
2019-04-28T02:10:14.567Z,4.20
2019-04-28T02:12:44.214Z,3.72
2019-04-28T02:15:13.879Z,4.00
2019-04-28T02:17:43.526Z,3.45
2019-04-28T02:20:15.332Z,3.50
2019-04-28T02:22:46.703Z,3.90
2019-04-28T02:25:16.398Z,3.70
2019-04-28T02:27:45.972Z,4.25
2019-04-28T02:30:15.697Z,3.77
2019-04-28T02:32:45.351Z,4.37
2019-04-28T02:35:15.044Z,3.65
2019-04-28T02:37:44.607Z,4.00
2019-04-28T02:40:14.238Z,4.00
2019-04-28T02:42:43.882Z,4.20
2019-04-28T02:45:16.566Z,4.08
2019-04-28T02:47:46.244Z,3.80
2019-04-28T02:50:26.342Z,3.85
2019-04-28T02:52:57.721Z,4.40
2019-04-28T02:55:27.268Z,3.67
2019-04-28T02:57:57.858Z,4.35
2019-04-28T03:00:27.566Z,3.45
2019-04-28T03:02:57.319Z,3.87
2019-04-28T03:05:27.020Z,4.10
2019-04-28T03:07:56.645Z,4.30
2019-04-28T03:10:26.279Z,4.95
2019-04-28T03:12:56.074Z,4.00
2019-04-28T03:15:25.687Z,4.40
2019-04-28T03:17:55.332Z,4.80
2019-04-28T03:20:25.046Z,4.92
2019-04-28T03:22:55.006Z,5.17
2019-04-28T03:28:06.759Z,5.08
2019-04-28T03:30:44.336Z,5.40
2019-04-28T03:33:25.239Z,5.10
2019-04-28T03:35:53.863Z,5.55
2019-04-28T03:38:23.858Z,5.37
2019-04-28T03:40:53.598Z,4.95
2019-04-28T03:43:23.300Z,5.22
2019-04-28T03:46:03.174Z,5.53
2019-04-28T03:48:33.677Z,5.60
2019-04-28T03:51:02.814Z,5.92
2019-04-28T03:53:32.386Z,6.33
2019-04-28T03:56:01.972Z,6.37
2019-04-28T03:58:31.631Z,6.20
2019-04-28T04:01:03.127Z,5.90
2019-04-28T04:03:32.507Z,6.00
2019-04-28T04:06:02.149Z,5.35
2019-04-28T04:08:31.678Z,5.55
2019-04-28T04:11:02.970Z,5.92
2019-04-28T04:13:34.269Z,6.15
2019-04-28T04:16:17.662Z,6.20
2019-04-28T04:18:52.977Z,5.72
2019-04-28T04:21:21.369Z,5.60
2019-04-28T04:23:51.168Z,5.03
2019-04-28T04:26:21.553Z,6.00
2019-04-28T04:28:51.773Z,6.37
2019-04-28T04:31:21.546Z,7.03
2019-04-28T04:33:51.199Z,6.55
2019-04-28T04:36:21.320Z,7.00
2019-04-28T04:38:51.621Z,7.25
2019-04-28T04:41:21.672Z,6.67
2019-04-28T04:43:52.466Z,6.70
2019-04-28T04:46:23.988Z,6.08
2019-04-28T04:48:53.670Z,6.67
2019-04-28T04:51:23.379Z,6.90
2019-04-28T04:53:53.042Z,6.87
2019-04-28T04:56:22.759Z,6.47
2019-04-28T04:58:52.409Z,6.22
2019-04-28T05:01:23.710Z,6.25
2019-04-28T05:04:07.217Z,6.67
2019-04-28T05:06:42.686Z,6.97
2019-04-28T05:09:12.329Z,6.67
2019-04-28T05:11:41.906Z,6.90
2019-04-28T05:14:12.084Z,6.42
2019-04-28T05:16:41.849Z,6.45
2019-04-28T05:19:12.516Z,6.75
2019-04-28T05:21:42.160Z,6.80
2019-04-28T05:24:20.108Z,6.65
2019-04-28T05:26:51.579Z,6.33
2019-04-28T05:29:26.496Z,6.95
2019-04-28T05:31:54.807Z,6.12
2019-04-28T05:34:24.609Z,5.70
2019-04-28T05:36:54.322Z,6.15
2019-04-28T05:39:23.993Z,6.40
2019-04-28T05:41:53.711Z,6.10
2019-04-28T05:44:23.985Z,6.25
2019-04-28T05:46:53.555Z,6.65
2019-04-28T05:49:27.316Z,6.60
2019-04-28T05:52:09.640Z,6.20
2019-04-28T05:54:55.646Z,6.12
2019-04-28T05:57:30.578Z,6.30
2019-04-28T06:00:10.868Z,6.65
2019-04-28T06:02:54.208Z,6.50
2019-04-28T06:05:13.664Z,5.97
2019-04-28T06:08:01.101Z,5.55
2019-04-28T06:10:30.789Z,5.15
2019-04-28T06:13:00.489Z,4.97
2019-04-28T06:15:29.998Z,4.80
2019-04-28T06:18:00.186Z,4.80
2019-04-28T06:20:30.380Z,4.58
2019-04-28T06:22:59.975Z,4.72
2019-04-28T06:25:29.612Z,4.30
2019-04-28T06:27:59.327Z,3.22
2019-04-28T06:30:29.060Z,3.15
2019-04-28T06:33:07.722Z,2.92
2019-04-28T06:35:29.879Z,2.87
2019-04-28T06:37:59.547Z,2.98
2019-04-28T06:40:29.099Z,2.90
2019-04-28T06:42:58.807Z,2.98
2019-04-28T06:45:29.454Z,3.00
2019-04-28T06:47:59.195Z,2.90
2019-04-28T06:50:33.022Z,2.70
2019-04-28T06:53:03.094Z,3.00
2019-04-28T06:55:35.277Z,2.60
2019-04-28T06:58:04.971Z,3.30
2019-04-28T07:00:34.674Z,3.20
2019-04-28T07:03:16.994Z,2.77
2019-04-28T07:05:40.392Z,3.00
2019-04-28T07:08:10.085Z,2.95
2019-04-28T07:10:39.804Z,2.85
2019-04-28T07:13:09.597Z,3.10
2019-04-28T07:15:39.523Z,2.62
2019-04-28T07:18:15.308Z,2.98
2019-04-28T07:21:01.778Z,3.15
2019-04-28T07:23:34.056Z,4.03
2019-04-28T07:26:11.277Z,3.10
2019-04-28T07:28:42.693Z,2.60
2019-04-28T07:34:37.383Z,4.03
2019-04-28T07:40:10.248Z,3.10
2019-04-28T07:42:45.620Z,2.75
2019-04-28T07:45:18.537Z,3.35
2019-04-28T07:47:49.852Z,3.40
2019-04-28T07:53:28.632Z,4.03
2019-04-28T07:59:27.488Z,3.80
2019-04-28T08:05:46.835Z,3.10
2019-04-28T08:08:20.352Z,2.92
2019-04-28T08:10:52.587Z,3.17
2019-04-28T08:13:23.353Z,3.10
2019-04-28T08:15:54.905Z,3.00
2019-04-28T08:19:21.394Z,3.27
2019-04-28T08:21:07.040Z,2.90
2019-04-28T08:23:46.947Z,2.87
2019-04-28T08:26:12.780Z,3.27
2019-04-28T08:28:46.772Z,3.30
2019-04-28T08:31:21.831Z,3.22
2019-04-28T08:34:02.570Z,3.22
2019-04-28T08:36:27.312Z,3.15
2019-04-28T08:41:32.144Z,3.37
2019-04-28T08:44:04.746Z,3.72
2019-04-28T08:46:37.014Z,3.08
2019-04-28T08:49:14.479Z,3.20
2019-04-28T08:52:03.661Z,2.98
2019-04-28T08:54:35.033Z,3.10
2019-04-28T08:57:07.644Z,2.52
2019-04-28T08:59:37.417Z,2.67
2019-04-28T09:02:09.358Z,2.95
2019-04-28T09:04:41.623Z,2.65
2019-04-28T09:07:14.568Z,2.98
2019-04-28T09:09:43.004Z,2.85
2019-04-28T09:12:14.215Z,2.67
2019-04-28T09:14:49.896Z,2.67
2019-04-28T09:17:19.695Z,2.95
2019-04-28T09:19:51.927Z,2.98
2019-04-28T09:22:21.690Z,2.80
2019-04-28T09:24:51.481Z,3.10
2019-04-28T09:27:22.190Z,2.90
2019-04-28T09:29:52.065Z,3.10
2019-04-28T09:32:21.867Z,3.50
2019-04-28T09:34:53.311Z,2.65
2019-04-28T09:37:23.123Z,3.08
2019-04-28T09:42:30.765Z,3.47
2019-04-28T09:45:18.671Z,3.10
2019-04-28T09:47:48.606Z,3.12
2019-04-28T09:52:48.744Z,3.17
2019-04-28T09:55:19.643Z,3.00
2019-04-28T09:57:49.407Z,3.15
2019-04-28T10:00:20.167Z,3.12
2019-04-28T10:02:49.908Z,3.02
2019-04-28T10:05:20.605Z,2.90
2019-04-28T10:07:50.362Z,3.00
2019-04-28T10:10:20.199Z,3.20
2019-04-28T10:15:18.717Z,2.92
2019-04-28T10:17:48.435Z,3.00
2019-04-28T10:20:18.568Z,3.50
2019-04-28T10:22:48.364Z,3.80
2019-04-28T10:25:20.988Z,3.10
2019-04-28T10:27:49.534Z,3.17
2019-04-28T10:30:19.375Z,2.90
2019-04-28T10:32:49.108Z,3.15
2019-04-28T10:37:47.702Z,2.95
2019-04-28T10:40:22.095Z,3.08
2019-04-28T10:42:51.807Z,3.00
2019-04-28T10:45:23.178Z,3.42
2019-04-28T10:47:52.967Z,3.17
2019-04-28T10:50:22.648Z,3.10
2019-04-28T10:52:55.264Z,3.35
2019-04-28T10:55:25.140Z,3.58
2019-04-28T10:57:54.703Z,3.62
2019-04-28T11:00:27.639Z,3.42
2019-04-28T11:02:57.400Z,3.40
2019-04-28T11:05:28.724Z,3.10
2019-04-28T11:07:58.507Z,3.22
2019-04-28T11:12:57.100Z,3.20
2019-04-28T11:15:28.455Z,3.30
2019-04-28T11:17:58.098Z,3.37
2019-04-28T11:20:28.024Z,3.30
2019-04-28T11:25:26.555Z,3.27
2019-04-28T11:27:56.227Z,3.70
2019-04-28T11:30:28.575Z,3.17
2019-04-28T11:33:16.535Z,3.85
2019-04-28T11:35:47.714Z,4.00
2019-04-28T11:38:17.351Z,4.42
2019-04-28T11:40:47.153Z,4.60
2019-04-28T11:43:16.758Z,4.92
2019-04-28T11:45:46.425Z,6.33
2019-04-28T11:48:16.079Z,4.20
2019-04-28T11:50:46.899Z,4.50
2019-04-28T11:58:15.332Z,4.00
2019-04-28T12:03:13.931Z,3.40
2019-04-28T12:08:14.134Z,3.47
2019-04-28T12:13:31.707Z,4.80
2019-04-28T12:16:11.647Z,5.55
2019-04-28T12:18:59.337Z,4.30
2019-04-28T12:21:29.030Z,3.15
2019-04-28T12:26:27.762Z,3.27
2019-04-28T12:31:26.367Z,3.33
2019-04-28T12:33:55.980Z,3.17
2019-04-28T12:36:25.652Z,3.30
2019-04-28T12:38:55.403Z,3.05
2019-04-28T12:43:53.919Z,3.12
2019-04-28T12:46:23.560Z,4.42
2019-04-28T12:51:23.832Z,3.25
2019-04-28T12:56:23.975Z,3.30
2019-04-28T13:01:25.646Z,3.20
2019-04-28T13:04:13.027Z,3.17
2019-04-28T13:06:44.374Z,3.55
2019-04-28T13:09:14.556Z,3.37
2019-04-28T13:11:44.384Z,3.33
2019-04-28T13:14:14.037Z,3.30
2019-04-28T13:19:12.603Z,3.08
2019-04-28T13:24:11.186Z,3.00
2019-04-28T13:26:40.844Z,2.92
2019-04-28T13:29:10.340Z,3.30
2019-04-28T13:31:40.052Z,3.17
2019-04-28T13:34:11.317Z,3.22
2019-04-28T13:36:41.090Z,3.30
2019-04-28T13:41:59.783Z,3.30
2019-04-28T13:47:16.174Z,3.60
2019-04-28T13:49:59.202Z,6.08
2019-04-28T13:52:28.918Z,8.60
2019-04-28T13:55:00.240Z,3.15
2019-04-28T13:57:29.866Z,3.02
2019-04-28T14:00:01.110Z,3.02
2019-04-28T14:02:35.643Z,3.17
2019-04-28T14:05:22.872Z,3.02
2019-04-28T14:07:52.569Z,3.10
2019-04-28T14:10:22.193Z,3.10
2019-04-28T14:12:51.910Z,3.15
2019-04-28T14:15:21.568Z,3.22
2019-04-28T14:20:20.194Z,3.20
2019-04-28T14:25:18.699Z,3.15
2019-04-28T14:30:18.276Z,2.92
2019-04-28T14:32:47.984Z,3.45
2019-04-28T14:35:17.507Z,2.90
2019-04-28T14:37:47.258Z,3.12
2019-04-28T14:40:17.255Z,3.20
2019-04-28T14:45:16.024Z,3.17
2019-04-28T14:47:45.831Z,2.87
2019-04-28T14:52:44.359Z,3.27
2019-04-28T14:57:42.842Z,3.40
2019-04-28T15:02:47.823Z,3.60
2019-04-28T15:05:21.739Z,3.90
2019-04-28T15:08:09.222Z,3.87
2019-04-28T15:10:49.626Z,4.10
2019-04-28T15:13:20.330Z,3.98
2019-04-28T15:15:50.040Z,3.83
2019-04-28T15:18:20.943Z,3.90
2019-04-28T15:20:50.687Z,4.20
2019-04-28T15:23:21.400Z,4.10
2019-04-28T15:25:50.903Z,4.05
2019-04-28T15:28:20.703Z,3.83
2019-04-28T15:30:50.375Z,4.12
2019-04-28T15:33:20.151Z,4.25
2019-04-28T15:35:49.815Z,3.80
2019-04-28T15:38:32.304Z,4.50
2019-04-28T15:41:01.991Z,4.20
2019-04-28T15:43:34.549Z,3.87
2019-04-28T15:46:04.899Z,4.10
2019-04-28T15:48:34.612Z,3.70
2019-04-28T15:51:05.796Z,3.75
2019-04-28T15:53:36.732Z,3.62
2019-04-28T15:56:13.807Z,3.50
2019-04-28T15:58:43.463Z,3.90
2019-04-28T16:03:43.283Z,3.50
2019-04-28T16:06:13.003Z,3.70
2019-04-28T16:08:42.780Z,3.80
2019-04-28T16:11:12.503Z,3.80
2019-04-28T16:16:10.867Z,3.63
2019-04-28T16:18:40.472Z,3.50
2019-04-28T16:23:38.876Z,3.27
2019-04-28T16:28:37.236Z,3.25
2019-04-28T16:33:35.787Z,3.70
2019-04-28T16:36:05.476Z,3.35
2019-04-28T16:41:04.312Z,3.40
2019-04-28T16:43:37.315Z,3.30
2019-04-28T16:46:07.090Z,3.42
2019-04-28T16:51:06.526Z,3.17
2019-04-28T16:53:36.126Z,3.50
2019-04-28T16:56:13.301Z,3.47
2019-04-28T16:58:44.530Z,3.33
2019-04-28T17:01:21.929Z,3.30
2019-04-28T17:03:51.756Z,3.33
2019-04-28T17:08:50.174Z,3.45
2019-04-28T17:11:19.876Z,3.95
2019-04-28T17:13:49.552Z,4.60
2019-04-28T17:16:19.333Z,4.08
2019-04-28T17:18:48.988Z,4.10
2019-04-28T17:21:18.723Z,3.55
2019-04-28T17:23:48.350Z,3.47
2019-04-28T17:26:18.068Z,3.72
2019-04-28T17:28:47.798Z,3.20
2019-04-28T17:31:17.435Z,3.47
2019-04-28T17:33:47.087Z,3.67
2019-04-28T17:36:16.802Z,3.67
2019-04-28T17:38:46.578Z,3.35
2019-04-28T17:41:16.283Z,3.17
2019-04-28T17:43:45.927Z,3.58
2019-04-28T17:46:15.680Z,3.70
2019-04-28T17:48:58.892Z,3.33
2019-04-28T17:51:28.599Z,3.12
2019-04-28T17:53:58.322Z,3.45
2019-04-28T17:56:27.959Z,3.30
2019-04-28T17:58:57.558Z,3.30
2019-04-28T18:01:37.577Z,3.25
2019-04-28T18:04:08.965Z,3.08
2019-04-28T18:06:48.962Z,3.08
2019-04-28T18:09:19.719Z,3.00
2019-04-28T18:11:49.515Z,3.00
2019-04-28T18:14:19.243Z,3.40
2019-04-28T18:16:56.523Z,3.50
2019-04-28T18:19:27.051Z,3.17
2019-04-28T18:21:56.687Z,3.55
2019-04-28T18:24:26.403Z,4.62
2019-04-28T18:26:56.062Z,5.17
2019-04-28T18:29:25.697Z,3.70
2019-04-28T18:31:56.993Z,3.55
2019-04-28T18:34:37.443Z,4.17
2019-04-28T18:37:20.898Z,2.92
2019-04-28T18:40:03.999Z,3.25
2019-04-28T18:42:38.462Z,3.65
2019-04-28T18:45:09.375Z,3.77
2019-04-28T18:47:38.955Z,3.50
2019-04-28T18:50:08.749Z,3.35
2019-04-28T18:52:38.562Z,3.55
2019-04-28T18:55:08.335Z,3.30
2019-04-28T18:57:37.939Z,2.92
2019-04-28T19:00:08.113Z,2.80
2019-04-28T19:02:39.949Z,3.10
2019-04-28T19:05:10.586Z,3.30
2019-04-28T19:10:40.237Z,2.92
2019-04-28T19:13:22.926Z,3.25
2019-04-28T19:15:54.309Z,2.92
2019-04-28T19:18:34.375Z,3.25
2019-04-28T19:21:04.304Z,2.98
2019-04-28T19:26:02.932Z,3.05
2019-04-28T19:28:32.644Z,2.90
2019-04-28T19:31:02.280Z,2.75
2019-04-28T19:33:32.024Z,2.98
2019-04-28T19:36:01.724Z,3.12
2019-04-28T19:38:31.363Z,3.50
2019-04-28T19:41:00.994Z,2.85
2019-04-28T19:43:30.808Z,2.92
2019-04-28T19:46:02.067Z,3.08
2019-04-28T19:48:31.795Z,3.00
2019-04-28T19:51:01.620Z,2.95
2019-04-28T19:53:32.491Z,3.10
2019-04-28T19:56:14.395Z,3.00
2019-04-28T19:58:45.935Z,2.83
2019-04-28T20:01:17.248Z,3.08
2019-04-28T20:03:46.971Z,2.77
2019-04-28T20:06:16.626Z,2.83
2019-04-28T20:08:46.358Z,3.02
2019-04-28T20:11:16.150Z,3.00
2019-04-28T20:13:46.000Z,2.60
2019-04-28T20:16:15.774Z,2.87
2019-04-28T20:18:48.622Z,2.62
2019-04-28T20:21:16.799Z,2.70
2019-04-28T20:23:46.516Z,2.77
2019-04-28T20:26:19.501Z,2.27
2019-04-28T20:28:50.970Z,2.40
2019-04-28T20:31:20.747Z,2.65
2019-04-28T20:33:50.394Z,2.30
2019-04-28T20:36:27.258Z,2.55
2019-04-28T20:38:58.615Z,2.90
2019-04-28T20:44:30.184Z,2.52
2019-04-28T20:46:59.948Z,2.40
2019-04-28T20:49:32.358Z,2.37
2019-04-28T20:52:09.377Z,2.70
2019-04-28T20:54:41.982Z,2.58
2019-04-28T20:57:13.518Z,2.60
2019-04-28T20:59:50.949Z,2.58
2019-04-28T21:02:20.703Z,2.90
2019-04-28T21:04:51.194Z,3.35
2019-04-28T21:07:22.273Z,3.08
2019-04-28T21:09:56.362Z,3.50
2019-04-28T21:12:31.444Z,3.47
2019-04-28T21:15:05.152Z,3.12
2019-04-28T21:17:35.048Z,3.22
2019-04-28T21:20:17.589Z,3.45
2019-04-28T21:22:54.857Z,3.20
2019-04-28T21:25:26.825Z,3.42
2019-04-28T21:27:58.960Z,2.75
2019-04-28T21:30:29.281Z,3.10
2019-04-28T21:33:03.465Z,3.05
2019-04-28T21:35:36.080Z,2.90
2019-04-28T21:38:10.237Z,2.80
2019-04-28T21:40:41.314Z,3.08
2019-04-28T21:43:13.114Z,2.90
2019-04-28T21:45:59.463Z,2.75
2019-04-28T21:48:33.217Z,2.95
2019-04-28T21:51:02.759Z,2.87
2019-04-28T21:53:32.325Z,2.85
2019-04-28T21:56:03.059Z,3.10
2019-04-28T21:58:33.712Z,2.50
2019-04-28T22:01:04.273Z,2.70
2019-04-28T22:03:36.738Z,3.80
2019-04-28T22:06:06.470Z,5.20
2019-04-28T22:08:36.171Z,3.72
2019-04-28T22:11:05.792Z,3.27
2019-04-28T22:13:35.555Z,2.95
2019-04-28T22:16:05.481Z,2.85
2019-04-28T22:18:36.711Z,2.90
2019-04-28T22:21:06.314Z,2.62
2019-04-28T22:23:40.206Z,2.83
2019-04-28T22:26:11.455Z,2.42
2019-04-28T22:28:42.609Z,2.70
2019-04-28T22:31:13.426Z,2.77
2019-04-28T22:33:43.135Z,2.72
2019-04-28T22:36:12.768Z,2.90
2019-04-28T22:38:42.316Z,2.37
2019-04-28T22:41:11.946Z,2.50
2019-04-28T22:43:41.518Z,2.30
2019-04-28T22:46:11.080Z,2.20
2019-04-28T22:48:40.696Z,2.35
2019-04-28T22:51:10.371Z,2.75
2019-04-28T22:53:40.081Z,2.50
2019-04-28T22:56:11.329Z,2.52
2019-04-28T22:58:45.140Z,2.15
2019-04-28T23:01:24.989Z,2.42
2019-04-28T23:04:08.198Z,2.33
2019-04-28T23:06:38.914Z,2.25
2019-04-28T23:09:11.399Z,2.37
2019-04-28T23:11:43.779Z,2.22
2019-04-28T23:14:13.375Z,2.25
2019-04-28T23:16:43.072Z,2.60
2019-04-28T23:19:14.382Z,2.20
2019-04-28T23:21:48.364Z,2.40
2019-04-28T23:24:17.941Z,2.45
2019-04-28T23:26:47.620Z,2.35
2019-04-28T23:29:17.298Z,2.47
2019-04-28T23:31:47.020Z,2.33
2019-04-28T23:34:18.191Z,2.50
2019-04-28T23:36:47.953Z,2.40
2019-04-28T23:39:20.118Z,2.20
2019-04-28T23:41:57.268Z,2.50
2019-04-28T23:44:27.962Z,2.15
2019-04-28T23:46:58.935Z,2.50
2019-04-28T23:49:30.113Z,2.77
2019-04-28T23:52:04.313Z,2.58
2019-04-28T23:54:35.707Z,2.62
2019-04-28T23:57:07.400Z,2.52
2019-04-28T23:59:38.476Z,2.45
